^^
Station Historical Data
Daily Summary for October 11, 2018 Units:  Both    English   Metric
« Previous Day
Next Day »
Daily Weekly Monthly Yearly Custom
  High: Low: Average:
Temperature: TemperatureF °F /  -17.8 °C 43.3 °F /  6.3 °C 45.5 °F /  7.5 °C
Dew Point: DewpointF °F /  -17.8 °C 43.3 °F /  6.3 °C 45.5 °F /  7.5 °C
Humidity: Humidity % 96 % 100 %
Wind Speed: WindSpeedMPH mph /  0 km/h - 0 mph /  0 km/h
Wind Gust: WindSpeedGustMPH mph /  0 km/h - -
Wind:- - East
Pressure: PressureIn in /  0 hPa 29.50 in /  998.9 hPa -
Precipitation: 0.15 in /  3.81 mm    
Historical Graphs
 
 
Tabular Data for October 11, 2018
Time Temperature Dew Point Pressure Wind Wind Speed Wind Gust Humidity Rainfall Rate (Hourly) solar Conditions
TemperatureF °F /  -17.8 °C DewpointF °F /  -17.8 °C PressureIn in /  0 hPa Calm     Humidity % HourlyPrecipIn in /  0 mm SoftwareType W/m2 Conditions
00:00 46 °F /  7.8 °C 44.9 °F /  7.2 °C 29.86 in /  1011.1 hPa Calm   3 mph /  4.8 km/h 96 % 0 in /  0 mm WeatherDisplay:10.37 W/m2 RA
00:05 45.9 °F /  7.7 °C 44.8 °F /  7.1 °C 29.85 in /  1010.7 hPa Calm   1 mph /  1.6 km/h 96 % 0 in /  0 mm WeatherDisplay:10.37 W/m2 RA
00:10 45.8 °F /  7.7 °C 45.8 °F /  7.7 °C 29.85 in /  1010.7 hPa ESE 1 mph /  1.6 km/h 9 mph /  14.5 km/h 100 % 0 in /  0 mm WeatherDisplay:10.37 W/m2 FEW
00:15 45.7 °F /  7.6 °C 45.7 °F /  7.6 °C 29.85 in /  1010.7 hPa Calm   3 mph /  4.8 km/h 100 % 0 in /  0 mm WeatherDisplay:10.37 W/m2 FEW
00:20 45.7 °F /  7.6 °C 45.7 °F /  7.6 °C 29.85 in /  1010.7 hPa Calm   2 mph /  3.2 km/h 100 % 0 in /  0 mm WeatherDisplay:10.37 W/m2 FEW
00:25 45.6 °F /  7.6 °C 44.5 °F /  6.9 °C 29.85 in /  1010.7 hPa Calm   3 mph /  4.8 km/h 96 % 0 in /  0 mm WeatherDisplay:10.37 W/m2 FEW
00:30 45.5 °F /  7.5 °C 44.4 °F /  6.9 °C 29.85 in /  1010.7 hPa Calm   3 mph /  4.8 km/h 96 % 0 in /  0 mm WeatherDisplay:10.37 W/m2 FEW
00:35 45.5 °F /  7.5 °C 44.4 °F /  6.9 °C 29.85 in /  1010.7 hPa Calm   2 mph /  3.2 km/h 96 % 0 in /  0 mm WeatherDisplay:10.37 W/m2 FEW
00:40 45.4 °F /  7.4 °C 45.4 °F /  7.4 °C 29.85 in /  1010.7 hPa Calm   3 mph /  4.8 km/h 100 % 0 in /  0 mm WeatherDisplay:10.37 W/m2 FEW
00:45 45.4 °F /  7.4 °C 45.4 °F /  7.4 °C 29.85 in /  1010.7 hPa Calm   3 mph /  4.8 km/h 100 % 0 in /  0 mm WeatherDisplay:10.37 W/m2 FEW
00:50 45.3 °F /  7.4 °C 45.3 °F /  7.4 °C 29.84 in /  1010.4 hPa East 1 mph /  1.6 km/h 8 mph /  12.9 km/h 100 % 0 in /  0 mm WeatherDisplay:10.37 W/m2 FEW
00:55 45.2 °F /  7.3 °C 45.2 °F /  7.3 °C 29.84 in /  1010.4 hPa Calm   2 mph /  3.2 km/h 100 % 0 in /  0 mm WeatherDisplay:10.37 W/m2 FEW
01:00 45.1 °F /  7.3 °C 45.1 °F /  7.3 °C 29.84 in /  1010.4 hPa Calm     100 % 0 in /  0 mm WeatherDisplay:10.37 W/m2 FEW
01:05 45.1 °F /  7.3 °C 45.1 °F /  7.3 °C 29.84 in /  1010.4 hPa Calm   1 mph /  1.6 km/h 100 % 0 in /  0 mm WeatherDisplay:10.37 W/m2 FEW
01:10 45 °F /  7.2 °C 45 °F /  7.2 °C 29.84 in /  1010.4 hPa Calm   3 mph /  4.8 km/h 100 % 0 in /  0 mm WeatherDisplay:10.37 W/m2 FEW
01:15 45 °F /  7.2 °C 45 °F /  7.2 °C 29.84 in /  1010.4 hPa Calm   5 mph /  8 km/h 100 % 0 in /  0 mm WeatherDisplay:10.37 W/m2 FEW
01:20 44.9 °F /  7.2 °C 44.9 °F /  7.2 °C 29.83 in /  1010 hPa Calm   3 mph /  4.8 km/h 100 % 0 in /  0 mm WeatherDisplay:10.37 W/m2 FEW
01:25 44.8 °F /  7.1 °C 44.8 °F /  7.1 °C 29.83 in /  1010 hPa Calm   2 mph /  3.2 km/h 100 % 0 in /  0 mm WeatherDisplay:10.37 W/m2 FEW
01:30 44.8 °F /  7.1 °C 44.8 °F /  7.1 °C 29.83 in /  1010 hPa Calm   3 mph /  4.8 km/h 100 % 0 in /  0 mm WeatherDisplay:10.37 W/m2 FEW
01:35 44.7 °F /  7.1 °C 44.7 °F /  7.1 °C 29.83 in /  1010 hPa Calm   4 mph /  6.4 km/h 100 % 0 in /  0 mm WeatherDisplay:10.37 W/m2 FEW
01:40 44.6 °F /  7 °C 44.6 °F /  7 °C 29.83 in /  1010 hPa Calm   4 mph /  6.4 km/h 100 % 0 in /  0 mm WeatherDisplay:10.37 W/m2 FEW
01:45 44.6 °F /  7 °C 44.6 °F /  7 °C 29.83 in /  1010 hPa Calm   5 mph /  8 km/h 100 % 0 in /  0 mm WeatherDisplay:10.37 W/m2 FEW
01:50 44.5 °F /  6.9 °C 44.5 °F /  6.9 °C 29.83 in /  1010 hPa Calm   5 mph /  8 km/h 100 % 0 in /  0 mm WeatherDisplay:10.37 W/m2 FEW
01:55 44.5 °F /  6.9 °C 44.5 °F /  6.9 °C 29.83 in /  1010 hPa Calm   3 mph /  4.8 km/h 100 % 0 in /  0 mm WeatherDisplay:10.37 W/m2 FEW
02:00 44.4 °F /  6.9 °C 44.4 °F /  6.9 °C 29.83 in /  1010 hPa Calm   1 mph /  1.6 km/h 100 % 0 in /  0 mm WeatherDisplay:10.37 W/m2 FEW
02:05 44.4 °F /  6.9 °C 44.4 °F /  6.9 °C 29.83 in /  1010 hPa Calm   2 mph /  3.2 km/h 100 % 0 in /  0 mm WeatherDisplay:10.37 W/m2 FEW
02:10 44.4 °F /  6.9 °C 44.4 °F /  6.9 °C 29.82 in /  1009.7 hPa Calm   3 mph /  4.8 km/h 100 % 0 in /  0 mm WeatherDisplay:10.37 W/m2 FEW
02:15 44.3 °F /  6.8 °C 44.3 °F /  6.8 °C 29.82 in /  1009.7 hPa Calm   5 mph /  8 km/h 100 % 0 in /  0 mm WeatherDisplay:10.37 W/m2 FEW
02:20 44.3 °F /  6.8 °C 44.3 °F /  6.8 °C 29.81 in /  1009.4 hPa Calm   1 mph /  1.6 km/h 100 % 0 in /  0 mm WeatherDisplay:10.37 W/m2 FEW
02:25 44.3 °F /  6.8 °C 44.3 °F /  6.8 °C 29.81 in /  1009.4 hPa ENE 1 mph /  1.6 km/h 6 mph /  9.7 km/h 100 % 0 in /  0 mm WeatherDisplay:10.37 W/m2 FEW
02:30 44.2 °F /  6.8 °C 44.2 °F /  6.8 °C 29.80 in /  1009 hPa Calm   6 mph /  9.7 km/h 100 % 0 in /  0 mm WeatherDisplay:10.37 W/m2 FEW
02:35 44.2 °F /  6.8 °C 44.2 °F /  6.8 °C 29.80 in /  1009 hPa Calm   1 mph /  1.6 km/h 100 % 0 in /  0 mm WeatherDisplay:10.37 W/m2 FEW
02:40 44.1 °F /  6.7 °C 44.1 °F /  6.7 °C 29.80 in /  1009 hPa Calm   2 mph /  3.2 km/h 100 % 0 in /  0 mm WeatherDisplay:10.37 W/m2 FEW
02:45 44.1 °F /  6.7 °C 44.1 °F /  6.7 °C 29.79 in /  1008.7 hPa Calm   2 mph /  3.2 km/h 100 % 0 in /  0 mm WeatherDisplay:10.37 W/m2 FEW
02:50 44.1 °F /  6.7 °C 44.1 °F /  6.7 °C 29.79 in /  1008.7 hPa East 1 mph /  1.6 km/h 5 mph /  8 km/h 100 % 0 in /  0 mm WeatherDisplay:10.37 W/m2 FEW
02:55 44 °F /  6.7 °C 44 °F /  6.7 °C 29.78 in /  1008.4 hPa Calm   2 mph /  3.2 km/h 100 % 0 in /  0 mm WeatherDisplay:10.37 W/m2 FEW
03:00 44 °F /  6.7 °C 44 °F /  6.7 °C 29.78 in /  1008.4 hPa Calm   3 mph /  4.8 km/h 100 % 0 in /  0 mm WeatherDisplay:10.37 W/m2 FEW
03:05 44 °F /  6.7 °C 44 °F /  6.7 °C 29.78 in /  1008.4 hPa Calm   4 mph /  6.4 km/h 100 % 0 in /  0 mm WeatherDisplay:10.37 W/m2 FEW
03:10 44 °F /  6.7 °C 44 °F /  6.7 °C 29.78 in /  1008.4 hPa Calm   3 mph /  4.8 km/h 100 % 0 in /  0 mm WeatherDisplay:10.37 W/m2 FEW
03:15 43.9 °F /  6.6 °C 43.9 °F /  6.6 °C 29.78 in /  1008.4 hPa Calm   2 mph /  3.2 km/h 100 % 0 in /  0 mm WeatherDisplay:10.37 W/m2 FEW
03:20 43.9 °F /  6.6 °C 43.9 °F /  6.6 °C 29.77 in /  1008 hPa Calm   2 mph /  3.2 km/h 100 % 0 in /  0 mm WeatherDisplay:10.37 W/m2 FEW
03:25 43.9 °F /  6.6 °C 43.9 °F /  6.6 °C 29.77 in /  1008 hPa Calm   3 mph /  4.8 km/h 100 % 0 in /  0 mm WeatherDisplay:10.37 W/m2 FEW
03:30 43.9 °F /  6.6 °C 43.9 °F /  6.6 °C 29.77 in /  1008 hPa Calm   2 mph /  3.2 km/h 100 % 0 in /  0 mm WeatherDisplay:10.37 W/m2 FEW
03:35 43.8 °F /  6.6 °C 43.8 °F /  6.6 °C 29.76 in /  1007.7 hPa Calm   3 mph /  4.8 km/h 100 % 0 in /  0 mm WeatherDisplay:10.37 W/m2 FEW
03:40 43.8 °F /  6.6 °C 43.8 °F /  6.6 °C 29.76 in /  1007.7 hPa Calm   3 mph /  4.8 km/h 100 % 0 in /  0 mm WeatherDisplay:10.37 W/m2 FEW
03:45 43.7 °F /  6.5 °C 43.7 °F /  6.5 °C 29.76 in /  1007.7 hPa Calm   1 mph /  1.6 km/h 100 % 0 in /  0 mm WeatherDisplay:10.37 W/m2 FEW
03:50 43.7 °F /  6.5 °C 43.7 °F /  6.5 °C 29.75 in /  1007.3 hPa Calm   3 mph /  4.8 km/h 100 % 0 in /  0 mm WeatherDisplay:10.37 W/m2 FEW
03:55 43.7 °F /  6.5 °C 43.7 °F /  6.5 °C 29.75 in /  1007.3 hPa Calm   2 mph /  3.2 km/h 100 % 0 in /  0 mm WeatherDisplay:10.37 W/m2 FEW
04:00 43.7 °F /  6.5 °C 43.7 °F /  6.5 °C 29.75 in /  1007.3 hPa Calm   2 mph /  3.2 km/h 100 % 0 in /  0 mm WeatherDisplay:10.37 W/m2 FEW
04:05 43.7 °F /  6.5 °C 43.7 °F /  6.5 °C 29.75 in /  1007.3 hPa Calm     100 % 0 in /  0 mm WeatherDisplay:10.37 W/m2 FEW
04:10 43.7 °F /  6.5 °C 43.7 °F /  6.5 °C 29.75 in /  1007.3 hPa Calm   2 mph /  3.2 km/h 100 % 0 in /  0 mm WeatherDisplay:10.37 W/m2 FEW
04:15 43.7 °F /  6.5 °C 43.7 °F /  6.5 °C 29.75 in /  1007.3 hPa Calm     100 % 0 in /  0 mm WeatherDisplay:10.37 W/m2 FEW
04:20 43.7 °F /  6.5 °C 43.7 °F /  6.5 °C 29.74 in /  1007 hPa Calm     100 % 0 in /  0 mm WeatherDisplay:10.37 W/m2 FEW
04:25 43.7 °F /  6.5 °C 43.7 °F /  6.5 °C 29.75 in /  1007.3 hPa Calm   4 mph /  6.4 km/h 100 % 0 in /  0 mm WeatherDisplay:10.37 W/m2 FEW
04:30 43.7 °F /  6.5 °C 43.7 °F /  6.5 °C 29.74 in /  1007 hPa Calm   6 mph /  9.7 km/h 100 % 0 in /  0 mm WeatherDisplay:10.37 W/m2 FEW
04:35 43.6 °F /  6.4 °C 43.6 °F /  6.4 °C 29.74 in /  1007 hPa Calm   5 mph /  8 km/h 100 % 0 in /  0 mm WeatherDisplay:10.37 W/m2 FEW
04:40 43.6 °F /  6.4 °C 43.6 °F /  6.4 °C 29.73 in /  1006.7 hPa Calm   1 mph /  1.6 km/h 100 % 0 in /  0 mm WeatherDisplay:10.37 W/m2 FEW
04:45 43.6 °F /  6.4 °C 43.6 °F /  6.4 °C 29.73 in /  1006.7 hPa Calm   3 mph /  4.8 km/h 100 % 0 in /  0 mm WeatherDisplay:10.37 W/m2 FEW
04:50 43.6 °F /  6.4 °C 43.6 °F /  6.4 °C 29.73 in /  1006.7 hPa Calm   7 mph /  11.3 km/h 100 % 0 in /  0 mm WeatherDisplay:10.37 W/m2 FEW
04:55 43.6 °F /  6.4 °C 43.6 °F /  6.4 °C 29.73 in /  1006.7 hPa Calm   4 mph /  6.4 km/h 100 % 0 in /  0 mm WeatherDisplay:10.37 W/m2 FEW
05:05 43.7 °F /  6.5 °C 43.7 °F /  6.5 °C 29.72 in /  1006.3 hPa Calm   2 mph /  3.2 km/h 100 % 0.01 in /  0.25 mm WeatherDisplay:10.37 W/m2 RA
05:10 43.7 °F /  6.5 °C 43.7 °F /  6.5 °C 29.73 in /  1006.7 hPa Calm   4 mph /  6.4 km/h 100 % 0 in /  0 mm WeatherDisplay:10.37 W/m2 RA
05:15 43.7 °F /  6.5 °C 43.7 °F /  6.5 °C 29.72 in /  1006.3 hPa Calm   3 mph /  4.8 km/h 100 % 0.01 in /  0.25 mm WeatherDisplay:10.37 W/m2 RA
05:20 43.7 °F /  6.5 °C 43.7 °F /  6.5 °C 29.72 in /  1006.3 hPa Calm   1 mph /  1.6 km/h 100 % 0.02 in /  0.51 mm WeatherDisplay:10.37 W/m2 RA
05:25 43.7 °F /  6.5 °C 43.7 °F /  6.5 °C 29.72 in /  1006.3 hPa Calm   1 mph /  1.6 km/h 100 % 0.01 in /  0.25 mm WeatherDisplay:10.37 W/m2 RA
05:30 43.7 °F /  6.5 °C 43.7 °F /  6.5 °C 29.72 in /  1006.3 hPa Calm   2 mph /  3.2 km/h 100 % 0.01 in /  0.25 mm WeatherDisplay:10.37 W/m2 RA
05:35 43.7 °F /  6.5 °C 43.7 °F /  6.5 °C 29.72 in /  1006.3 hPa Calm     100 % 0.01 in /  0.25 mm WeatherDisplay:10.37 W/m2 RA
05:40 43.6 °F /  6.4 °C 43.6 °F /  6.4 °C 29.71 in /  1006 hPa Calm   2 mph /  3.2 km/h 100 % 0 in /  0 mm WeatherDisplay:10.37 W/m2 RA
05:45 43.7 °F /  6.5 °C 43.7 °F /  6.5 °C 29.71 in /  1006 hPa Calm   1 mph /  1.6 km/h 100 % 0 in /  0 mm WeatherDisplay:10.37 W/m2 FEW
05:50 43.6 °F /  6.4 °C 43.6 °F /  6.4 °C 29.71 in /  1006 hPa Calm   3 mph /  4.8 km/h 100 % 0 in /  0 mm WeatherDisplay:10.37 W/m2 FEW
05:55 43.6 °F /  6.4 °C 43.6 °F /  6.4 °C 29.70 in /  1005.6 hPa Calm   2 mph /  3.2 km/h 100 % 0.01 in /  0.25 mm WeatherDisplay:10.37 W/m2 RA
06:00 43.6 °F /  6.4 °C 43.6 °F /  6.4 °C 29.70 in /  1005.6 hPa Calm   3 mph /  4.8 km/h 100 % 0 in /  0 mm WeatherDisplay:10.37 W/m2 RA
06:05 43.6 °F /  6.4 °C 43.6 °F /  6.4 °C 29.70 in /  1005.6 hPa Calm   1 mph /  1.6 km/h 100 % 0 in /  0 mm WeatherDisplay:10.37 W/m2 FEW
06:10 43.6 °F /  6.4 °C 43.6 °F /  6.4 °C 29.70 in /  1005.6 hPa Calm   1 mph /  1.6 km/h 100 % 0.01 in /  0.25 mm WeatherDisplay:10.37 W/m2 RA
06:15 43.6 °F /  6.4 °C 43.6 °F /  6.4 °C 29.70 in /  1005.6 hPa Calm   1 mph /  1.6 km/h 100 % 0 in /  0 mm WeatherDisplay:10.37 W/m2 RA
06:20 43.6 °F /  6.4 °C 43.6 °F /  6.4 °C 29.70 in /  1005.6 hPa Calm   1 mph /  1.6 km/h 100 % 0 in /  0 mm WeatherDisplay:10.37 W/m2 FEW
06:25 43.6 °F /  6.4 °C 43.6 °F /  6.4 °C 29.69 in /  1005.3 hPa Calm   3 mph /  4.8 km/h 100 % 0.01 in /  0.25 mm WeatherDisplay:10.37 W/m2 RA
06:30 43.6 °F /  6.4 °C 43.6 °F /  6.4 °C 29.69 in /  1005.3 hPa Calm   2 mph /  3.2 km/h 100 % 0 in /  0 mm WeatherDisplay:10.37 W/m2 RA
06:35 43.6 °F /  6.4 °C 43.6 °F /  6.4 °C 29.69 in /  1005.3 hPa Calm   2 mph /  3.2 km/h 100 % 0 in /  0 mm WeatherDisplay:10.37 W/m2 FEW
06:40 43.6 °F /  6.4 °C 43.6 °F /  6.4 °C 29.69 in /  1005.3 hPa Calm   3 mph /  4.8 km/h 100 % 0 in /  0 mm WeatherDisplay:10.37 W/m2 FEW
06:45 43.6 °F /  6.4 °C 43.6 °F /  6.4 °C 29.68 in /  1005 hPa Calm   2 mph /  3.2 km/h 100 % 0 in /  0 mm WeatherDisplay:10.37 W/m2 FEW
06:50 43.5 °F /  6.4 °C 43.5 °F /  6.4 °C 29.68 in /  1005 hPa Calm   2 mph /  3.2 km/h 100 % 0 in /  0 mm WeatherDisplay:10.37 W/m2 FEW
06:55 43.5 °F /  6.4 °C 43.5 °F /  6.4 °C 29.68 in /  1005 hPa Calm   3 mph /  4.8 km/h 100 % 0 in /  0 mm WeatherDisplay:10.37 W/m2 FEW
07:00 43.5 °F /  6.4 °C 43.5 °F /  6.4 °C 29.68 in /  1005 hPa Calm   5 mph /  8 km/h 100 % 0.01 in /  0.25 mm WeatherDisplay:10.37 W/m2 RA
07:05 43.5 °F /  6.4 °C 43.5 °F /  6.4 °C 29.67 in /  1004.6 hPa Calm   2 mph /  3.2 km/h 100 % 0 in /  0 mm WeatherDisplay:10.37 W/m2 RA
07:10 43.5 °F /  6.4 °C 43.5 °F /  6.4 °C 29.67 in /  1004.6 hPa Calm   2 mph /  3.2 km/h 100 % 0 in /  0 mm WeatherDisplay:10.37 W/m2 FEW
07:15 43.4 °F /  6.3 °C 43.4 °F /  6.3 °C 29.67 in /  1004.6 hPa Calm   1 mph /  1.6 km/h 100 % 0 in /  0 mm WeatherDisplay:10.37 W/m2 FEW
07:20 43.4 °F /  6.3 °C 43.4 °F /  6.3 °C 29.67 in /  1004.6 hPa Calm   1 mph /  1.6 km/h 100 % 0.01 in /  0.25 mm WeatherDisplay:10.37 W/m2 RA
07:25 43.4 °F /  6.3 °C 43.4 °F /  6.3 °C 29.67 in /  1004.6 hPa Calm   1 mph /  1.6 km/h 100 % 0 in /  0 mm WeatherDisplay:10.37 W/m2 RA
07:30 43.4 °F /  6.3 °C 43.4 °F /  6.3 °C 29.67 in /  1004.6 hPa Calm     100 % 0 in /  0 mm WeatherDisplay:10.37 W/m2 FEW
07:35 43.4 °F /  6.3 °C 43.4 °F /  6.3 °C 29.67 in /  1004.6 hPa Calm   3 mph /  4.8 km/h 100 % 0 in /  0 mm WeatherDisplay:10.37 W/m2 FEW
07:40 43.3 °F /  6.3 °C 43.3 °F /  6.3 °C 29.67 in /  1004.6 hPa Calm   2 mph /  3.2 km/h 100 % 0.01 in /  0.25 mm WeatherDisplay:10.37 W/m2 RA
07:45 43.3 °F /  6.3 °C 43.3 °F /  6.3 °C 29.66 in /  1004.3 hPa Calm     100 % 0 in /  0 mm WeatherDisplay:10.37 W/m2 RA
07:50 43.3 °F /  6.3 °C 43.3 °F /  6.3 °C 29.66 in /  1004.3 hPa Calm   1 mph /  1.6 km/h 100 % 0 in /  0 mm WeatherDisplay:10.37 W/m2 FEW
07:55 43.3 °F /  6.3 °C 43.3 °F /  6.3 °C 29.66 in /  1004.3 hPa Calm   1 mph /  1.6 km/h 100 % 0 in /  0 mm WeatherDisplay:10.37 W/m2 FEW
08:00 43.3 °F /  6.3 °C 43.3 °F /  6.3 °C 29.66 in /  1004.3 hPa Calm     100 % 0 in /  0 mm WeatherDisplay:10.37 W/m2 FEW
08:05 43.3 °F /  6.3 °C 43.3 °F /  6.3 °C 29.66 in /  1004.3 hPa Calm   3 mph /  4.8 km/h 100 % 0 in /  0 mm WeatherDisplay:10.37 W/m2 FEW
08:10 43.3 °F /  6.3 °C 43.3 °F /  6.3 °C 29.66 in /  1004.3 hPa Calm   4 mph /  6.4 km/h 100 % 0.01 in /  0.25 mm WeatherDisplay:10.37 W/m2 RA
08:15 43.3 °F /  6.3 °C 43.3 °F /  6.3 °C 29.66 in /  1004.3 hPa Calm   1 mph /  1.6 km/h 100 % 0 in /  0 mm WeatherDisplay:10.37 W/m2 RA
08:20 43.3 °F /  6.3 °C 43.3 °F /  6.3 °C 29.66 in /  1004.3 hPa Calm   3 mph /  4.8 km/h 100 % 0 in /  0 mm WeatherDisplay:10.37 W/m2 FEW
08:25 43.3 °F /  6.3 °C 43.3 °F /  6.3 °C 29.66 in /  1004.3 hPa Calm     100 % 0 in /  0 mm WeatherDisplay:10.37 W/m2 FEW
08:30 43.3 °F /  6.3 °C 43.3 °F /  6.3 °C 29.65 in /  1003.9 hPa Calm     100 % 0 in /  0 mm WeatherDisplay:10.37 W/m2 FEW
08:35 43.4 °F /  6.3 °C 43.4 °F /  6.3 °C 29.65 in /  1003.9 hPa Calm   1 mph /  1.6 km/h 100 % 0 in /  0 mm WeatherDisplay:10.37 W/m2 FEW
08:40 43.4 °F /  6.3 °C 43.4 °F /  6.3 °C 29.65 in /  1003.9 hPa Calm   1 mph /  1.6 km/h 100 % 0 in /  0 mm WeatherDisplay:10.37 W/m2 FEW
08:45 43.4 °F /  6.3 °C 43.4 °F /  6.3 °C 29.65 in /  1003.9 hPa Calm   1 mph /  1.6 km/h 100 % 0 in /  0 mm WeatherDisplay:10.37 W/m2 FEW
08:50 43.4 °F /  6.3 °C 43.4 °F /  6.3 °C 29.65 in /  1003.9 hPa Calm   2 mph /  3.2 km/h 100 % 0 in /  0 mm WeatherDisplay:10.37 W/m2 FEW
08:55 43.4 °F /  6.3 °C 43.4 °F /  6.3 °C 29.65 in /  1003.9 hPa Calm   2 mph /  3.2 km/h 100 % 0.01 in /  0.25 mm WeatherDisplay:10.37 W/m2 RA
09:00 43.5 °F /  6.4 °C 43.5 °F /  6.4 °C 29.65 in /  1003.9 hPa Calm   2 mph /  3.2 km/h 100 % 0 in /  0 mm WeatherDisplay:10.37 W/m2 RA
09:05 43.5 °F /  6.4 °C 43.5 °F /  6.4 °C 29.65 in /  1003.9 hPa Calm   2 mph /  3.2 km/h 100 % 0 in /  0 mm WeatherDisplay:10.37 W/m2 FEW
09:10 43.5 °F /  6.4 °C 43.5 °F /  6.4 °C 29.64 in /  1003.6 hPa Calm   1 mph /  1.6 km/h 100 % 0 in /  0 mm WeatherDisplay:10.37 W/m2 FEW
09:15 43.6 °F /  6.4 °C 43.6 °F /  6.4 °C 29.64 in /  1003.6 hPa Calm     100 % 0 in /  0 mm WeatherDisplay:10.37 W/m2 FEW
09:20 43.6 °F /  6.4 °C 43.6 °F /  6.4 °C 29.65 in /  1003.9 hPa Calm   1 mph /  1.6 km/h 100 % 0 in /  0 mm WeatherDisplay:10.37 W/m2 FEW
09:25 43.6 °F /  6.4 °C 43.6 °F /  6.4 °C 29.64 in /  1003.6 hPa Calm   1 mph /  1.6 km/h 100 % 0 in /  0 mm WeatherDisplay:10.37 W/m2 FEW
09:30 43.6 °F /  6.4 °C 43.6 °F /  6.4 °C 29.64 in /  1003.6 hPa Calm   1 mph /  1.6 km/h 100 % 0 in /  0 mm WeatherDisplay:10.37 W/m2 FEW
09:35 43.6 °F /  6.4 °C 43.6 °F /  6.4 °C 29.64 in /  1003.6 hPa Calm   3 mph /  4.8 km/h 100 % 0 in /  0 mm WeatherDisplay:10.37 W/m2 FEW
09:40 43.7 °F /  6.5 °C 43.7 °F /  6.5 °C 29.64 in /  1003.6 hPa Calm   1 mph /  1.6 km/h 100 % 0 in /  0 mm WeatherDisplay:10.37 W/m2 FEW
09:45 43.7 °F /  6.5 °C 43.7 °F /  6.5 °C 29.64 in /  1003.6 hPa Calm   3 mph /  4.8 km/h 100 % 0 in /  0 mm WeatherDisplay:10.37 W/m2 FEW
09:50 43.7 °F /  6.5 °C 43.7 °F /  6.5 °C 29.64 in /  1003.6 hPa Calm     100 % 0 in /  0 mm WeatherDisplay:10.37 W/m2 FEW
09:55 43.8 °F /  6.6 °C 43.8 °F /  6.6 °C 29.63 in /  1003.3 hPa Calm     100 % 0 in /  0 mm WeatherDisplay:10.37 W/m2 FEW
10:00 43.8 °F /  6.6 °C 43.8 °F /  6.6 °C 29.63 in /  1003.3 hPa Calm   1 mph /  1.6 km/h 100 % 0 in /  0 mm WeatherDisplay:10.37 W/m2 FEW
10:05 43.8 °F /  6.6 °C 43.8 °F /  6.6 °C 29.63 in /  1003.3 hPa Calm     100 % 0.01 in /  0.25 mm WeatherDisplay:10.37 W/m2 RA
10:10 43.8 °F /  6.6 °C 43.9 °F /  6.6 °C 29.62 in /  1002.9 hPa Calm   2 mph /  3.2 km/h 100 % 0 in /  0 mm WeatherDisplay:10.37 W/m2 RA
10:15 43.9 °F /  6.6 °C 43.9 °F /  6.6 °C 29.62 in /  1002.9 hPa Calm     100 % 0 in /  0 mm WeatherDisplay:10.37 W/m2 FEW
10:20 43.9 °F /  6.6 °C 43.9 °F /  6.6 °C 29.62 in /  1002.9 hPa Calm   1 mph /  1.6 km/h 100 % 0 in /  0 mm WeatherDisplay:10.37 W/m2 FEW
10:25 43.9 °F /  6.6 °C 43.9 °F /  6.6 °C 29.63 in /  1003.3 hPa Calm     100 % 0 in /  0 mm WeatherDisplay:10.37 W/m2 FEW
10:30 43.9 °F /  6.6 °C 43.9 °F /  6.6 °C 29.63 in /  1003.3 hPa Calm     100 % 0 in /  0 mm WeatherDisplay:10.37 W/m2 FEW
10:35 44 °F /  6.7 °C 44 °F /  6.7 °C 29.62 in /  1002.9 hPa Calm     100 % 0 in /  0 mm WeatherDisplay:10.37 W/m2 FEW
10:40 44.1 °F /  6.7 °C 44.1 °F /  6.7 °C 29.61 in /  1002.6 hPa Calm   1 mph /  1.6 km/h 100 % 0.01 in /  0.25 mm WeatherDisplay:10.37 W/m2 RA
10:45 44.1 °F /  6.7 °C 44.1 °F /  6.7 °C 29.61 in /  1002.6 hPa Calm   2 mph /  3.2 km/h 100 % 0 in /  0 mm WeatherDisplay:10.37 W/m2 RA
10:50 44.2 °F /  6.8 °C 44.2 °F /  6.8 °C 29.61 in /  1002.6 hPa Calm   1 mph /  1.6 km/h 100 % 0 in /  0 mm WeatherDisplay:10.37 W/m2 FEW
10:55 44.3 °F /  6.8 °C 44.3 °F /  6.8 °C 29.61 in /  1002.6 hPa Calm   1 mph /  1.6 km/h 100 % 0 in /  0 mm WeatherDisplay:10.37 W/m2 FEW
11:00 44.4 °F /  6.9 °C 44.4 °F /  6.9 °C 29.61 in /  1002.6 hPa Calm     100 % 0 in /  0 mm WeatherDisplay:10.37 W/m2 FEW
11:05 44.4 °F /  6.9 °C 44.4 °F /  6.9 °C 29.61 in /  1002.6 hPa Calm     100 % 0 in /  0 mm WeatherDisplay:10.37 W/m2 FEW
11:10 44.5 °F /  6.9 °C 44.5 °F /  6.9 °C 29.61 in /  1002.6 hPa Calm   1 mph /  1.6 km/h 100 % 0 in /  0 mm WeatherDisplay:10.37 W/m2 FEW
11:15 44.5 °F /  6.9 °C 44.5 °F /  6.9 °C 29.61 in /  1002.6 hPa Calm     100 % 0 in /  0 mm WeatherDisplay:10.37 W/m2 FEW
11:20 44.5 °F /  6.9 °C 44.5 °F /  6.9 °C 29.61 in /  1002.6 hPa Calm     100 % 0 in /  0 mm WeatherDisplay:10.37 W/m2 FEW
11:25 44.6 °F /  7 °C 44.6 °F /  7 °C 29.61 in /  1002.6 hPa Calm   2 mph /  3.2 km/h 100 % 0 in /  0 mm WeatherDisplay:10.37 W/m2 FEW
11:30 44.7 °F /  7.1 °C 44.7 °F /  7.1 °C 29.61 in /  1002.6 hPa Calm   1 mph /  1.6 km/h 100 % 0 in /  0 mm WeatherDisplay:10.37 W/m2 FEW
11:35 44.8 °F /  7.1 °C 44.8 °F /  7.1 °C 29.60 in /  1002.3 hPa Calm     100 % 0 in /  0 mm WeatherDisplay:10.37 W/m2 FEW
11:40 44.9 °F /  7.2 °C 44.9 °F /  7.2 °C 29.60 in /  1002.3 hPa Calm   3 mph /  4.8 km/h 100 % 0 in /  0 mm WeatherDisplay:10.37 W/m2 FEW
11:45 45 °F /  7.2 °C 45 °F /  7.2 °C 29.60 in /  1002.3 hPa Calm     100 % 0 in /  0 mm WeatherDisplay:10.37 W/m2 FEW
11:50 45.1 °F /  7.3 °C 45.1 °F /  7.3 °C 29.60 in /  1002.3 hPa Calm     100 % 0 in /  0 mm WeatherDisplay:10.37 W/m2 FEW
11:55 45.2 °F /  7.3 °C 45.2 °F /  7.3 °C 29.60 in /  1002.3 hPa Calm   1 mph /  1.6 km/h 100 % 0.01 in /  0.25 mm WeatherDisplay:10.37 W/m2 RA
12:00 45.3 °F /  7.4 °C 45.3 °F /  7.4 °C 29.60 in /  1002.3 hPa Calm     100 % 0 in /  0 mm WeatherDisplay:10.37 W/m2 RA
12:05 45.4 °F /  7.4 °C 45.4 °F /  7.4 °C 29.59 in /  1001.9 hPa Calm     100 % 0 in /  0 mm WeatherDisplay:10.37 W/m2 FEW
12:10 45.5 °F /  7.5 °C 45.5 °F /  7.5 °C 29.60 in /  1002.3 hPa Calm     100 % 0 in /  0 mm WeatherDisplay:10.37 W/m2 FEW
12:15 45.6 °F /  7.6 °C 45.6 °F /  7.6 °C 29.59 in /  1001.9 hPa Calm   1 mph /  1.6 km/h 100 % 0 in /  0 mm WeatherDisplay:10.37 W/m2 FEW
12:20 45.7 °F /  7.6 °C 45.7 °F /  7.6 °C 29.59 in /  1001.9 hPa Calm   1 mph /  1.6 km/h 100 % 0 in /  0 mm WeatherDisplay:10.37 W/m2 FEW
12:25 45.8 °F /  7.7 °C 45.8 °F /  7.7 °C 29.59 in /  1001.9 hPa Calm   2 mph /  3.2 km/h 100 % 0 in /  0 mm WeatherDisplay:10.37 W/m2 FEW
12:30 45.8 °F /  7.7 °C 45.8 °F /  7.7 °C 29.59 in /  1001.9 hPa Calm   1 mph /  1.6 km/h 100 % 0 in /  0 mm WeatherDisplay:10.37 W/m2 FEW
12:35 45.9 °F /  7.7 °C 45.9 °F /  7.7 °C 29.59 in /  1001.9 hPa Calm     100 % 0 in /  0 mm WeatherDisplay:10.37 W/m2 FEW
12:40 46 °F /  7.8 °C 46 °F /  7.8 °C 29.58 in /  1001.6 hPa Calm     100 % 0 in /  0 mm WeatherDisplay:10.37 W/m2 FEW
12:45 46.1 °F /  7.8 °C 46.1 °F /  7.8 °C 29.58 in /  1001.6 hPa Calm     100 % 0 in /  0 mm WeatherDisplay:10.37 W/m2 FEW
12:50 46.2 °F /  7.9 °C 46.2 °F /  7.9 °C 29.58 in /  1001.6 hPa Calm   2 mph /  3.2 km/h 100 % 0 in /  0 mm WeatherDisplay:10.37 W/m2 FEW
12:55 46.4 °F /  8 °C 46.4 °F /  8 °C 29.58 in /  1001.6 hPa Calm   1 mph /  1.6 km/h 100 % 0 in /  0 mm WeatherDisplay:10.37 W/m2 FEW
13:00 46.5 °F /  8.1 °C 46.5 °F /  8.1 °C 29.57 in /  1001.2 hPa Calm     100 % 0 in /  0 mm WeatherDisplay:10.37 W/m2 FEW
13:05 46.7 °F /  8.2 °C 46.7 °F /  8.2 °C 29.57 in /  1001.2 hPa Calm     100 % 0 in /  0 mm WeatherDisplay:10.37 W/m2 FEW
13:10 46.9 °F /  8.3 °C 46.9 °F /  8.3 °C 29.57 in /  1001.2 hPa Calm     100 % 0 in /  0 mm WeatherDisplay:10.37 W/m2 FEW
13:15 47 °F /  8.3 °C 47 °F /  8.3 °C 29.57 in /  1001.2 hPa Calm   1 mph /  1.6 km/h 100 % 0 in /  0 mm WeatherDisplay:10.37 W/m2 FEW
13:20 47 °F /  8.3 °C 47 °F /  8.3 °C 29.56 in /  1000.9 hPa Calm   1 mph /  1.6 km/h 100 % 0 in /  0 mm WeatherDisplay:10.37 W/m2 FEW
13:25 47 °F /  8.3 °C 47 °F /  8.3 °C 29.56 in /  1000.9 hPa Calm     100 % 0 in /  0 mm WeatherDisplay:10.37 W/m2 FEW
13:30 47 °F /  8.3 °C 47 °F /  8.3 °C 29.56 in /  1000.9 hPa Calm     100 % 0 in /  0 mm WeatherDisplay:10.37 W/m2 FEW
13:35 47 °F /  8.3 °C 47 °F /  8.3 °C 29.56 in /  1000.9 hPa Calm     100 % 0 in /  0 mm WeatherDisplay:10.37 W/m2 FEW
13:40 47.1 °F /  8.4 °C 47.1 °F /  8.4 °C 29.56 in /  1000.9 hPa Calm   3 mph /  4.8 km/h 100 % 0 in /  0 mm WeatherDisplay:10.37 W/m2 FEW
13:45 47.1 °F /  8.4 °C 47.1 °F /  8.4 °C 29.56 in /  1000.9 hPa Calm   3 mph /  4.8 km/h 100 % 0 in /  0 mm WeatherDisplay:10.37 W/m2 FEW
13:50 47.1 °F /  8.4 °C 47.1 °F /  8.4 °C 29.55 in /  1000.6 hPa Calm     100 % 0 in /  0 mm WeatherDisplay:10.37 W/m2 FEW
13:55 47.1 °F /  8.4 °C 47.1 °F /  8.4 °C 29.55 in /  1000.6 hPa Calm     100 % 0 in /  0 mm WeatherDisplay:10.37 W/m2 FEW
14:00 47.1 °F /  8.4 °C 47.1 °F /  8.4 °C 29.55 in /  1000.6 hPa Calm   2 mph /  3.2 km/h 100 % 0 in /  0 mm WeatherDisplay:10.37 W/m2 FEW
14:05 47.1 °F /  8.4 °C 47.1 °F /  8.4 °C 29.55 in /  1000.6 hPa Calm   1 mph /  1.6 km/h 100 % 0 in /  0 mm WeatherDisplay:10.37 W/m2 FEW
14:10 47.1 °F /  8.4 °C 47.1 °F /  8.4 °C 29.55 in /  1000.6 hPa Calm     100 % 0 in /  0 mm WeatherDisplay:10.37 W/m2 FEW
14:15 47.1 °F /  8.4 °C 47.1 °F /  8.4 °C 29.55 in /  1000.6 hPa Calm     100 % 0 in /  0 mm WeatherDisplay:10.37 W/m2 FEW
14:20 47.1 °F /  8.4 °C 47.1 °F /  8.4 °C 29.54 in /  1000.2 hPa Calm   4 mph /  6.4 km/h 100 % 0 in /  0 mm WeatherDisplay:10.37 W/m2 FEW
14:25 47.2 °F /  8.4 °C 47.2 °F /  8.4 °C 29.54 in /  1000.2 hPa Calm   1 mph /  1.6 km/h 100 % 0 in /  0 mm WeatherDisplay:10.37 W/m2 FEW
14:30 47.2 °F /  8.4 °C 47.2 °F /  8.4 °C 29.54 in /  1000.2 hPa Calm   2 mph /  3.2 km/h 100 % 0 in /  0 mm WeatherDisplay:10.37 W/m2 FEW
14:35 47.3 °F /  8.5 °C 47.3 °F /  8.5 °C 29.54 in /  1000.2 hPa Calm   1 mph /  1.6 km/h 100 % 0 in /  0 mm WeatherDisplay:10.37 W/m2 FEW
14:40 47.4 °F /  8.6 °C 47.4 °F /  8.6 °C 29.54 in /  1000.2 hPa Calm     100 % 0 in /  0 mm WeatherDisplay:10.37 W/m2 FEW
14:45 47.5 °F /  8.6 °C 47.5 °F /  8.6 °C 29.54 in /  1000.2 hPa Calm   2 mph /  3.2 km/h 100 % 0 in /  0 mm WeatherDisplay:10.37 W/m2 FEW
14:50 47.5 °F /  8.6 °C 47.5 °F /  8.6 °C 29.54 in /  1000.2 hPa Calm     100 % 0 in /  0 mm WeatherDisplay:10.37 W/m2 FEW
14:55 47.5 °F /  8.6 °C 47.5 °F /  8.6 °C 29.54 in /  1000.2 hPa Calm   1 mph /  1.6 km/h 100 % 0 in /  0 mm WeatherDisplay:10.37 W/m2 FEW
15:00 47.5 °F /  8.6 °C 47.5 °F /  8.6 °C 29.54 in /  1000.2 hPa Calm     100 % 0 in /  0 mm WeatherDisplay:10.37 W/m2 FEW
15:05 47.5 °F /  8.6 °C 47.5 °F /  8.6 °C 29.54 in /  1000.2 hPa Calm     100 % 0 in /  0 mm WeatherDisplay:10.37 W/m2 FEW
15:10 47.5 °F /  8.6 °C 47.5 °F /  8.6 °C 29.54 in /  1000.2 hPa Calm   2 mph /  3.2 km/h 100 % 0 in /  0 mm WeatherDisplay:10.37 W/m2 FEW
15:15 47.5 °F /  8.6 °C 47.5 °F /  8.6 °C 29.54 in /  1000.2 hPa Calm   2 mph /  3.2 km/h 100 % 0 in /  0 mm WeatherDisplay:10.37 W/m2 FEW
15:20 47.4 °F /  8.6 °C 47.5 °F /  8.6 °C 29.53 in /  999.9 hPa Calm     100 % 0 in /  0 mm WeatherDisplay:10.37 W/m2 FEW
15:25 47.4 °F /  8.6 °C 47.4 °F /  8.6 °C 29.53 in /  999.9 hPa Calm     100 % 0 in /  0 mm WeatherDisplay:10.37 W/m2 FEW
15:30 47.4 °F /  8.6 °C 47.4 °F /  8.6 °C 29.53 in /  999.9 hPa Calm   1 mph /  1.6 km/h 100 % 0 in /  0 mm WeatherDisplay:10.37 W/m2 FEW
15:35 47.4 °F /  8.6 °C 47.4 °F /  8.6 °C 29.53 in /  999.9 hPa Calm     100 % 0 in /  0 mm WeatherDisplay:10.37 W/m2 FEW
15:40 47.4 °F /  8.6 °C 47.4 °F /  8.6 °C 29.53 in /  999.9 hPa Calm     100 % 0 in /  0 mm WeatherDisplay:10.37 W/m2 FEW
15:45 47.5 °F /  8.6 °C 47.5 °F /  8.6 °C 29.53 in /  999.9 hPa Calm     100 % 0 in /  0 mm WeatherDisplay:10.37 W/m2 FEW
15:50 47.5 °F /  8.6 °C 47.5 °F /  8.6 °C 29.53 in /  999.9 hPa Calm     100 % 0 in /  0 mm WeatherDisplay:10.37 W/m2 FEW
15:55 47.5 °F /  8.6 °C 47.5 °F /  8.6 °C 29.53 in /  999.9 hPa Calm     100 % 0 in /  0 mm WeatherDisplay:10.37 W/m2 FEW
16:00 47.6 °F /  8.7 °C 47.6 °F /  8.7 °C 29.53 in /  999.9 hPa Calm   3 mph /  4.8 km/h 100 % 0 in /  0 mm WeatherDisplay:10.37 W/m2 FEW
16:05 47.6 °F /  8.7 °C 47.6 °F /  8.7 °C 29.53 in /  999.9 hPa Calm     100 % 0 in /  0 mm WeatherDisplay:10.37 W/m2 FEW
16:10 47.6 °F /  8.7 °C 47.6 °F /  8.7 °C 29.53 in /  999.9 hPa Calm     100 % 0 in /  0 mm WeatherDisplay:10.37 W/m2 FEW
16:15 47.6 °F /  8.7 °C 47.6 °F /  8.7 °C 29.53 in /  999.9 hPa Calm     100 % 0 in /  0 mm WeatherDisplay:10.37 W/m2 FEW
16:20 47.6 °F /  8.7 °C 47.6 °F /  8.7 °C 29.53 in /  999.9 hPa Calm     100 % 0 in /  0 mm WeatherDisplay:10.37 W/m2 FEW
16:25 47.6 °F /  8.7 °C 47.6 °F /  8.7 °C 29.53 in /  999.9 hPa Calm   1 mph /  1.6 km/h 100 % 0 in /  0 mm WeatherDisplay:10.37 W/m2 FEW
16:30 47.7 °F /  8.7 °C 47.7 °F /  8.7 °C 29.53 in /  999.9 hPa Calm     100 % 0 in /  0 mm WeatherDisplay:10.37 W/m2 FEW
16:35 47.7 °F /  8.7 °C 47.7 °F /  8.7 °C 29.52 in /  999.5 hPa Calm     100 % 0 in /  0 mm WeatherDisplay:10.37 W/m2 FEW
16:40 47.7 °F /  8.7 °C 47.7 °F /  8.7 °C 29.53 in /  999.9 hPa Calm     100 % 0 in /  0 mm WeatherDisplay:10.37 W/m2 FEW
16:45 47.7 °F /  8.7 °C 47.7 °F /  8.7 °C 29.52 in /  999.5 hPa Calm     100 % 0 in /  0 mm WeatherDisplay:10.37 W/m2 FEW
16:50 47.8 °F /  8.8 °C 47.8 °F /  8.8 °C 29.52 in /  999.5 hPa Calm     100 % 0 in /  0 mm WeatherDisplay:10.37 W/m2 FEW
16:55 47.8 °F /  8.8 °C 47.8 °F /  8.8 °C 29.52 in /  999.5 hPa Calm     100 % 0 in /  0 mm WeatherDisplay:10.37 W/m2 FEW
17:00 47.8 °F /  8.8 °C 47.8 °F /  8.8 °C 29.52 in /  999.5 hPa Calm     100 % 0 in /  0 mm WeatherDisplay:10.37 W/m2 FEW
17:05 47.8 °F /  8.8 °C 47.8 °F /  8.8 °C 29.52 in /  999.5 hPa Calm     100 % 0 in /  0 mm WeatherDisplay:10.37 W/m2 FEW
17:10 47.8 °F /  8.8 °C 47.8 °F /  8.8 °C 29.52 in /  999.5 hPa Calm     100 % 0 in /  0 mm WeatherDisplay:10.37 W/m2 FEW
17:15 47.8 °F /  8.8 °C 47.8 °F /  8.8 °C 29.52 in /  999.5 hPa Calm   1 mph /  1.6 km/h 100 % 0 in /  0 mm WeatherDisplay:10.37 W/m2 FEW
17:20 47.7 °F /  8.7 °C 47.7 °F /  8.7 °C 29.52 in /  999.5 hPa Calm     100 % 0 in /  0 mm WeatherDisplay:10.37 W/m2 FEW
17:25 47.8 °F /  8.8 °C 47.8 °F /  8.8 °C 29.52 in /  999.5 hPa Calm     100 % 0 in /  0 mm WeatherDisplay:10.37 W/m2 FEW
17:30 47.8 °F /  8.8 °C 47.8 °F /  8.8 °C 29.52 in /  999.5 hPa Calm     100 % 0 in /  0 mm WeatherDisplay:10.37 W/m2 FEW
17:35 47.8 °F /  8.8 °C 47.8 °F /  8.8 °C 29.52 in /  999.5 hPa Calm     100 % 0 in /  0 mm WeatherDisplay:10.37 W/m2 FEW
17:40 47.8 °F /  8.8 °C 47.8 °F /  8.8 °C 29.52 in /  999.5 hPa Calm   2 mph /  3.2 km/h 100 % 0 in /  0 mm WeatherDisplay:10.37 W/m2 FEW
17:45 47.7 °F /  8.7 °C 47.7 °F /  8.7 °C 29.52 in /  999.5 hPa Calm     100 % 0 in /  0 mm WeatherDisplay:10.37 W/m2 FEW
17:50 47.7 °F /  8.7 °C 47.7 °F /  8.7 °C 29.52 in /  999.5 hPa Calm     100 % 0 in /  0 mm WeatherDisplay:10.37 W/m2 FEW
17:55 47.7 °F /  8.7 °C 47.7 °F /  8.7 °C 29.52 in /  999.5 hPa Calm     100 % 0 in /  0 mm WeatherDisplay:10.37 W/m2 FEW
18:00 47.7 °F /  8.7 °C 47.7 °F /  8.7 °C 29.52 in /  999.5 hPa Calm     100 % 0 in /  0 mm WeatherDisplay:10.37 W/m2 FEW
18:05 47.6 °F /  8.7 °C 47.6 °F /  8.7 °C 29.52 in /  999.5 hPa Calm   1 mph /  1.6 km/h 100 % 0 in /  0 mm WeatherDisplay:10.37 W/m2 FEW
18:10 47.6 °F /  8.7 °C 47.6 °F /  8.7 °C 29.52 in /  999.5 hPa Calm     100 % 0 in /  0 mm WeatherDisplay:10.37 W/m2 FEW
18:15 47.5 °F /  8.6 °C 47.5 °F /  8.6 °C 29.51 in /  999.2 hPa Calm     100 % 0 in /  0 mm WeatherDisplay:10.37 W/m2 FEW
18:20 47.5 °F /  8.6 °C 47.5 °F /  8.6 °C 29.52 in /  999.5 hPa Calm     100 % 0 in /  0 mm WeatherDisplay:10.37 W/m2 FEW
18:25 47.5 °F /  8.6 °C 47.5 °F /  8.6 °C 29.52 in /  999.5 hPa Calm   1 mph /  1.6 km/h 100 % 0 in /  0 mm WeatherDisplay:10.37 W/m2 FEW
18:30 47.5 °F /  8.6 °C 47.5 °F /  8.6 °C 29.51 in /  999.2 hPa Calm   1 mph /  1.6 km/h 100 % 0 in /  0 mm WeatherDisplay:10.37 W/m2 FEW
18:35 47.5 °F /  8.6 °C 47.5 °F /  8.6 °C 29.52 in /  999.5 hPa Calm   1 mph /  1.6 km/h 100 % 0 in /  0 mm WeatherDisplay:10.37 W/m2 FEW
18:40 47.4 °F /  8.6 °C 47.4 °F /  8.6 °C 29.52 in /  999.5 hPa Calm   2 mph /  3.2 km/h 100 % 0 in /  0 mm WeatherDisplay:10.37 W/m2 FEW
18:45 47.4 °F /  8.6 °C 47.4 °F /  8.6 °C 29.52 in /  999.5 hPa Calm   1 mph /  1.6 km/h 100 % 0 in /  0 mm WeatherDisplay:10.37 W/m2 FEW
18:50 47.3 °F /  8.5 °C 47.3 °F /  8.5 °C 29.52 in /  999.5 hPa Calm     100 % 0 in /  0 mm WeatherDisplay:10.37 W/m2 FEW
18:55 47.3 °F /  8.5 °C 47.3 °F /  8.5 °C 29.52 in /  999.5 hPa Calm     100 % 0 in /  0 mm WeatherDisplay:10.37 W/m2 FEW
19:00 47.3 °F /  8.5 °C 47.3 °F /  8.5 °C 29.51 in /  999.2 hPa Calm     100 % 0 in /  0 mm WeatherDisplay:10.37 W/m2 FEW
19:05 47.3 °F /  8.5 °C 47.3 °F /  8.5 °C 29.52 in /  999.5 hPa Calm     100 % 0 in /  0 mm WeatherDisplay:10.37 W/m2 FEW
19:10 47.3 °F /  8.5 °C 47.3 °F /  8.5 °C 29.51 in /  999.2 hPa Calm     100 % 0 in /  0 mm WeatherDisplay:10.37 W/m2 FEW
19:15 47.3 °F /  8.5 °C 47.3 °F /  8.5 °C 29.51 in /  999.2 hPa Calm     100 % 0 in /  0 mm WeatherDisplay:10.37 W/m2 FEW
19:20 47.3 °F /  8.5 °C 47.3 °F /  8.5 °C 29.51 in /  999.2 hPa Calm   1 mph /  1.6 km/h 100 % 0 in /  0 mm WeatherDisplay:10.37 W/m2 FEW
19:25 47.3 °F /  8.5 °C 47.3 °F /  8.5 °C 29.50 in /  998.9 hPa Calm     100 % 0 in /  0 mm WeatherDisplay:10.37 W/m2 FEW
19:30 47.3 °F /  8.5 °C 47.3 °F /  8.5 °C 29.51 in /  999.2 hPa Calm     100 % 0 in /  0 mm WeatherDisplay:10.37 W/m2 FEW
19:35 47.3 °F /  8.5 °C 47.3 °F /  8.5 °C 29.51 in /  999.2 hPa Calm     100 % 0 in /  0 mm WeatherDisplay:10.37 W/m2 FEW
19:40 47.3 °F /  8.5 °C 47.3 °F /  8.5 °C 29.52 in /  999.5 hPa Calm     100 % 0 in /  0 mm WeatherDisplay:10.37 W/m2 FEW
19:50 47.3 °F /  8.5 °C 47.3 °F /  8.5 °C 29.52 in /  999.5 hPa Calm     100 % 0 in /  0 mm WeatherDisplay:10.37 W/m2 FEW
19:55 47.3 °F /  8.5 °C 47.3 °F /  8.5 °C 29.52 in /  999.5 hPa Calm     100 % 0 in /  0 mm WeatherDisplay:10.37 W/m2 FEW
20:00 47.4 °F /  8.6 °C 47.4 °F /  8.6 °C 29.53 in /  999.9 hPa Calm     100 % 0 in /  0 mm WeatherDisplay:10.37 W/m2 FEW
20:05 47.4 °F /  8.6 °C 47.4 °F /  8.6 °C 29.54 in /  1000.2 hPa Calm     100 % 0 in /  0 mm WeatherDisplay:10.37 W/m2 FEW
20:10 47.4 °F /  8.6 °C 47.4 °F /  8.6 °C 29.53 in /  999.9 hPa Calm     100 % 0 in /  0 mm WeatherDisplay:10.37 W/m2 FEW
20:15 47.4 °F /  8.6 °C 47.4 °F /  8.6 °C 29.52 in /  999.5 hPa Calm     100 % 0 in /  0 mm WeatherDisplay:10.37 W/m2 FEW
20:20 47.4 °F /  8.6 °C 47.4 °F /  8.6 °C 29.52 in /  999.5 hPa Calm     100 % 0 in /  0 mm WeatherDisplay:10.37 W/m2 FEW
20:25 47.4 °F /  8.6 °C 47.4 °F /  8.6 °C 29.52 in /  999.5 hPa Calm     100 % 0 in /  0 mm WeatherDisplay:10.37 W/m2 FEW
20:30 47.5 °F /  8.6 °C 47.5 °F /  8.6 °C 29.52 in /  999.5 hPa Calm     100 % 0 in /  0 mm WeatherDisplay:10.37 W/m2 FEW
20:35 47.5 °F /  8.6 °C 47.5 °F /  8.6 °C 29.52 in /  999.5 hPa Calm     100 % 0 in /  0 mm WeatherDisplay:10.37 W/m2 FEW
20:40 47.5 °F /  8.6 °C 47.5 °F /  8.6 °C 29.52 in /  999.5 hPa Calm     100 % 0.01 in /  0.25 mm WeatherDisplay:10.37 W/m2 RA
20:45 47.5 °F /  8.6 °C 47.5 °F /  8.6 °C 29.53 in /  999.9 hPa Calm     100 % 0 in /  0 mm WeatherDisplay:10.37 W/m2 RA
20:50 47.5 °F /  8.6 °C 47.5 °F /  8.6 °C 29.53 in /  999.9 hPa Calm     100 % 0 in /  0 mm WeatherDisplay:10.37 W/m2 FEW
20:55 47.5 °F /  8.6 °C 47.5 °F /  8.6 °C 29.53 in /  999.9 hPa Calm     100 % 0 in /  0 mm WeatherDisplay:10.37 W/m2 FEW
21:00 47.5 °F /  8.6 °C 47.5 °F /  8.6 °C 29.53 in /  999.9 hPa Calm     100 % 0 in /  0 mm WeatherDisplay:10.37 W/m2 FEW
21:05 47.5 °F /  8.6 °C 47.5 °F /  8.6 °C 29.53 in /  999.9 hPa Calm     100 % 0 in /  0 mm WeatherDisplay:10.37 W/m2 FEW
21:10 47.5 °F /  8.6 °C 47.5 °F /  8.6 °C 29.53 in /  999.9 hPa Calm     100 % 0 in /  0 mm WeatherDisplay:10.37 W/m2 FEW
21:15 47.5 °F /  8.6 °C 47.5 °F /  8.6 °C 29.54 in /  1000.2 hPa Calm     100 % 0 in /  0 mm WeatherDisplay:10.37 W/m2 FEW
21:20 47.5 °F /  8.6 °C 47.5 °F /  8.6 °C 29.54 in /  1000.2 hPa Calm     100 % 0 in /  0 mm WeatherDisplay:10.37 W/m2 FEW
21:25 47.5 °F /  8.6 °C 47.5 °F /  8.6 °C 29.54 in /  1000.2 hPa Calm     100 % 0 in /  0 mm WeatherDisplay:10.37 W/m2 FEW
21:30 47.5 °F /  8.6 °C 47.5 °F /  8.6 °C 29.54 in /  1000.2 hPa Calm     100 % 0 in /  0 mm WeatherDisplay:10.37 W/m2 FEW
21:35 47.5 °F /  8.6 °C 47.5 °F /  8.6 °C 29.54 in /  1000.2 hPa Calm     100 % 0 in /  0 mm WeatherDisplay:10.37 W/m2 FEW
21:40 47.5 °F /  8.6 °C 47.5 °F /  8.6 °C 29.54 in /  1000.2 hPa Calm     100 % 0 in /  0 mm WeatherDisplay:10.37 W/m2 FEW
21:45 47.5 °F /  8.6 °C 47.5 °F /  8.6 °C 29.54 in /  1000.2 hPa Calm     100 % 0 in /  0 mm WeatherDisplay:10.37 W/m2 FEW
21:50 47.6 °F /  8.7 °C 47.6 °F /  8.7 °C 29.54 in /  1000.2 hPa Calm     100 % 0 in /  0 mm WeatherDisplay:10.37 W/m2 FEW
21:55 47.6 °F /  8.7 °C 47.6 °F /  8.7 °C 29.54 in /  1000.2 hPa Calm     100 % 0 in /  0 mm WeatherDisplay:10.37 W/m2 FEW
22:00 47.6 °F /  8.7 °C 47.6 °F /  8.7 °C 29.54 in /  1000.2 hPa Calm     100 % 0 in /  0 mm WeatherDisplay:10.37 W/m2 FEW
22:05 47.6 °F /  8.7 °C 47.6 °F /  8.7 °C 29.54 in /  1000.2 hPa Calm     100 % 0 in /  0 mm WeatherDisplay:10.37 W/m2 FEW
22:10 47.6 °F /  8.7 °C 47.6 °F /  8.7 °C 29.54 in /  1000.2 hPa Calm     100 % 0 in /  0 mm WeatherDisplay:10.37 W/m2 FEW
22:15 47.6 °F /  8.7 °C 47.6 °F /  8.7 °C 29.54 in /  1000.2 hPa Calm     100 % 0 in /  0 mm WeatherDisplay:10.37 W/m2 FEW
22:20 47.6 °F /  8.7 °C 47.6 °F /  8.7 °C 29.54 in /  1000.2 hPa Calm     100 % 0 in /  0 mm WeatherDisplay:10.37 W/m2 FEW
22:25 47.6 °F /  8.7 °C 47.6 °F /  8.7 °C 29.54 in /  1000.2 hPa Calm     100 % 0 in /  0 mm WeatherDisplay:10.37 W/m2 FEW
22:30 47.6 °F /  8.7 °C 47.6 °F /  8.7 °C 29.54 in /  1000.2 hPa Calm     100 % 0 in /  0 mm WeatherDisplay:10.37 W/m2 FEW
22:35 47.7 °F /  8.7 °C 47.7 °F /  8.7 °C 29.54 in /  1000.2 hPa Calm     100 % 0 in /  0 mm WeatherDisplay:10.37 W/m2 FEW
22:40 47.7 °F /  8.7 °C 47.7 °F /  8.7 °C 29.54 in /  1000.2 hPa Calm     100 % 0 in /  0 mm WeatherDisplay:10.37 W/m2 FEW
22:45 47.7 °F /  8.7 °C 47.7 °F /  8.7 °C 29.54 in /  1000.2 hPa Calm     100 % 0 in /  0 mm WeatherDisplay:10.37 W/m2 FEW
22:50 47.8 °F /  8.8 °C 47.8 °F /  8.8 °C 29.54 in /  1000.2 hPa Calm     100 % 0 in /  0 mm WeatherDisplay:10.37 W/m2 FEW
22:55 47.8 °F /  8.8 °C 47.8 °F /  8.8 °C 29.54 in /  1000.2 hPa Calm   1 mph /  1.6 km/h 100 % 0 in /  0 mm WeatherDisplay:10.37 W/m2 FEW
23:00 47.8 °F /  8.8 °C 47.8 °F /  8.8 °C 29.54 in /  1000.2 hPa Calm     100 % 0 in /  0 mm WeatherDisplay:10.37 W/m2 FEW
23:05 47.8 °F /  8.8 °C 47.8 °F /  8.8 °C 29.54 in /  1000.2 hPa Calm     100 % 0 in /  0 mm WeatherDisplay:10.37 W/m2 FEW
23:10 47.8 °F /  8.8 °C 47.8 °F /  8.8 °C 29.54 in /  1000.2 hPa Calm     100 % 0 in /  0 mm WeatherDisplay:10.37 W/m2 FEW
23:15 47.8 °F /  8.8 °C 47.8 °F /  8.8 °C 29.54 in /  1000.2 hPa Calm     100 % 0 in /  0 mm WeatherDisplay:10.37 W/m2 FEW
23:20 47.8 °F /  8.8 °C 47.8 °F /  8.8 °C 29.54 in /  1000.2 hPa Calm     100 % 0 in /  0 mm WeatherDisplay:10.37 W/m2 FEW
23:25 47.8 °F /  8.8 °C 47.8 °F /  8.8 °C 29.54 in /  1000.2 hPa Calm     100 % 0 in /  0 mm WeatherDisplay:10.37 W/m2 FEW
23:30 47.8 °F /  8.8 °C 47.8 °F /  8.8 °C 29.54 in /  1000.2 hPa Calm     100 % 0 in /  0 mm WeatherDisplay:10.37 W/m2 FEW
23:35 47.8 °F /  8.8 °C 47.8 °F /  8.8 °C 29.54 in /  1000.2 hPa Calm   1 mph /  1.6 km/h 100 % 0 in /  0 mm WeatherDisplay:10.37 W/m2 FEW
23:40 47.8 °F /  8.8 °C 47.8 °F /  8.8 °C 29.54 in /  1000.2 hPa Calm     100 % 0 in /  0 mm WeatherDisplay:10.37 W/m2 FEW
23:45 47.8 °F /  8.8 °C 47.8 °F /  8.8 °C 29.54 in /  1000.2 hPa Calm     100 % 0 in /  0 mm WeatherDisplay:10.37 W/m2 FEW
23:50 47.8 °F /  8.8 °C 47.8 °F /  8.8 °C 29.54 in /  1000.2 hPa Calm     100 % 0 in /  0 mm WeatherDisplay:10.37 W/m2 FEW
23:55 47.7 °F /  8.7 °C 47.7 °F /  8.7 °C 29.54 in /  1000.2 hPa Calm     100 % 0 in /  0 mm WeatherDisplay:10.37 W/m2 FEW
Juneau County Weather
Compliments of Weather Underground - 3 mb